Time;durP1;ratioP1;P1;durP2;ratioP2;P2;SDS_P1;SDS_P2;PMS_P1;PMS_P2;Temp;Humidity;BMP_temperature;BMP_pressure;BME280_temperature;BME280_humidity;BME280_pressure;Samples;Min_cycle;Max_cycle;Signal;HPM_P1;HPM_P2
2022/04/15 00:00:44;;;;;;;1313.78;999.90;;;;;;;7.17;100.00;101561.06;5042083;28;20041;-80
2022/04/15 00:03:17;;;;;;;1311.30;999.90;;;;;;;7.14;100.00;101569.69;5042885;28;20052;-79
2022/04/15 00:05:52;;;;;;;1308.43;999.90;;;;;;;7.14;100.00;101562.38;5054060;28;20040;-78
2022/04/15 00:08:27;;;;;;;1296.35;999.90;;;;;;;7.11;100.00;101572.81;5046828;28;20060;-79
2022/04/15 00:11:00;;;;;;;1289.45;999.90;;;;;;;7.14;100.00;101567.78;5048264;28;20052;-79
2022/04/15 00:13:35;;;;;;;1279.90;999.90;;;;;;;7.16;100.00;101564.84;5049490;28;20036;-79
2022/04/15 00:16:10;;;;;;;1281.63;999.90;;;;;;;7.19;100.00;101561.66;5045698;28;20045;-79
2022/04/15 00:18:43;;;;;;;1287.00;999.90;;;;;;;7.22;100.00;101555.78;5047813;28;20047;-79
2022/04/15 00:21:16;;;;;;;1285.93;999.90;;;;;;;7.24;100.00;101566.38;5043909;28;20065;-79
2022/04/15 00:23:56;;;;;;;1278.15;999.90;;;;;;;7.17;100.00;101568.34;5050873;28;20057;-79
2022/04/15 00:26:29;;;;;;;1271.30;999.90;;;;;;;7.21;100.00;101559.53;5045374;28;20076;-79
2022/04/15 00:29:05;;;;;;;1274.13;999.90;;;;;;;7.15;100.00;101563.19;5053767;28;20049;-79
2022/04/15 00:31:38;;;;;;;1277.10;999.90;;;;;;;7.15;100.00;101561.31;5046804;28;20045;-80
2022/04/15 00:34:12;;;;;;;1275.97;999.90;;;;;;;7.14;100.00;101573.19;5047913;28;20397;-79
2022/04/15 00:36:46;;;;;;;1278.60;999.90;;;;;;;7.11;100.00;101568.25;5047357;28;20041;-79
2022/04/15 00:39:20;;;;;;;1274.88;999.90;;;;;;;7.09;100.00;101572.25;5049734;28;20068;-79
2022/04/15 00:41:53;;;;;;;1270.70;999.90;;;;;;;7.15;100.00;101582.13;5047974;28;20041;-78
2022/04/15 00:44:26;;;;;;;1273.38;999.90;;;;;;;7.13;100.00;101576.94;5045222;28;20413;-79
2022/04/15 00:46:54;;;;;;;1278.55;999.90;;;;;;;7.09;100.00;101573.06;5043117;28;20056;-79
2022/04/15 00:49:27;;;;;;;1278.43;999.90;;;;;;;7.00;100.00;101570.94;5047001;28;20044;-80
2022/04/15 00:52:03;;;;;;;1271.88;999.90;;;;;;;7.10;100.00;101576.63;5045145;28;20033;-79
2022/04/15 00:54:35;;;;;;;1276.97;999.90;;;;;;;7.15;100.00;101576.72;5053048;28;20041;-79
2022/04/15 00:57:09;;;;;;;;;;;;;;;7.13;100.00;101579.66;5048167;28;20045;-79
2022/04/15 00:59:44;;;;;;;1284.03;999.90;;;;;;;7.11;100.00;101584.50;5048969;28;19921;-79
2022/04/15 01:02:15;;;;;;;1282.60;999.90;;;;;;;7.08;100.00;101574.13;5049027;28;20079;-79
2022/04/15 01:04:52;;;;;;;1281.43;999.90;;;;;;;7.04;100.00;101575.63;5054380;28;20059;-79
2022/04/15 01:07:23;;;;;;;1283.03;999.90;;;;;;;7.07;100.00;101571.66;5045672;28;20076;-80
2022/04/15 01:09:59;;;;;;;1287.90;999.90;;;;;;;7.01;100.00;101576.13;5044943;28;20053;-79
2022/04/15 01:12:30;;;;;;;1290.20;999.90;;;;;;;7.00;100.00;101571.75;5053806;28;20134;-79
2022/04/15 01:15:06;;;;;;;1293.63;999.90;;;;;;;7.01;100.00;101572.59;5049665;28;20048;-79
2022/04/15 01:17:39;;;;;;;1296.18;999.90;;;;;;;7.04;100.00;101580.25;5045146;28;20056;-78
2022/04/15 01:20:09;;;;;;;1294.85;999.90;;;;;;;7.03;100.00;101582.13;5034484;28;20064;-80
2022/04/15 01:22:45;;;;;;;1299.43;999.90;;;;;;;7.03;100.00;101568.59;5046723;28;20048;-79
2022/04/15 01:25:19;;;;;;;1301.82;999.90;;;;;;;6.98;100.00;101573.88;5052073;28;20038;-79
2022/04/15 01:27:49;;;;;;;1302.30;999.90;;;;;;;7.08;100.00;101571.41;5046557;28;20040;-79
2022/04/15 01:30:22;;;;;;;1304.97;999.90;;;;;;;7.03;100.00;101573.19;5049035;28;20052;-78
2022/04/15 01:32:56;;;;;;;1305.15;999.90;;;;;;;6.98;100.00;101577.41;5049078;28;20398;-80
2022/04/15 01:35:29;;;;;;;1309.93;999.90;;;;;;;7.00;100.00;101587.19;5047336;28;20057;-79
2022/04/15 01:38:04;;;;;;;1307.25;999.90;;;;;;;6.97;100.00;101585.75;5039587;28;20072;-79
2022/04/15 01:40:39;;;;;;;1314.82;999.90;;;;;;;7.00;100.00;101587.19;5047810;28;20667;-79
2022/04/15 01:43:13;;;;;;;1324.38;999.90;;;;;;;6.98;100.00;101580.13;5052088;28;20054;-79
2022/04/15 01:45:47;;;;;;;1319.05;999.90;;;;;;;6.97;100.00;101577.63;5046552;28;20457;-80
2022/04/15 01:48:20;;;;;;;1326.72;999.90;;;;;;;6.93;100.00;101576.47;5053153;28;20057;-78
2022/04/15 01:50:53;;;;;;;1331.70;999.90;;;;;;;6.88;100.00;101585.28;5046441;28;20041;-79
2022/04/15 01:53:26;;;;;;;1340.03;999.90;;;;;;;6.89;100.00;101592.34;5048120;28;20087;-79
2022/04/15 01:56:01;;;;;;;1344.95;999.90;;;;;;;6.97;100.00;101594.72;5042971;28;20486;-79
2022/04/15 01:58:34;;;;;;;1353.60;999.90;;;;;;;6.94;100.00;101603.28;5046350;28;20053;-81
2022/04/15 02:01:08;;;;;;;1363.82;999.90;;;;;;;6.95;100.00;101583.28;5045682;28;20041;-80
2022/04/15 02:03:36;;;;;;;1358.75;999.90;;;;;;;7.02;100.00;101588.59;5047415;28;20060;-79
2022/04/15 02:06:10;;;;;;;1358.97;999.90;;;;;;;6.93;100.00;101569.19;5049134;28;20054;-79
2022/04/15 02:08:43;;;;;;;1361.72;999.90;;;;;;;6.91;100.00;101579.41;5042960;28;20489;-79
2022/04/15 02:11:17;;;;;;;1366.95;999.90;;;;;;;6.89;100.00;101588.81;5052599;28;20045;-80
2022/04/15 02:13:50;;;;;;;1369.63;999.90;;;;;;;6.91;100.00;101592.13;5038773;28;20413;-79
2022/04/15 02:16:23;;;;;;;1377.00;999.90;;;;;;;6.95;100.00;101598.72;5048430;28;20052;-79
2022/04/15 02:18:57;;;;;;;1385.18;999.90;;;;;;;6.86;100.00;101597.41;5044957;28;20242;-79
2022/04/15 02:21:30;;;;;;;1388.00;999.90;;;;;;;7.00;100.00;101598.00;5048925;28;20041;-79
2022/04/15 02:24:03;;;;;;;1401.60;999.90;;;;;;;6.91;100.00;101601.06;5043530;28;20045;-79
2022/04/15 02:26:38;;;;;;;1405.68;999.90;;;;;;;6.93;100.00;101609.78;5052323;28;20037;-79
2022/04/15 02:29:11;;;;;;;1399.13;999.90;;;;;;;6.97;100.00;101597.44;5045206;28;20397;-79
2022/04/15 02:31:44;;;;;;;1396.72;999.90;;;;;;;6.96;100.00;101598.47;5043963;28;20048;-79
2022/04/15 02:34:17;;;;;;;1393.50;999.90;;;;;;;6.95;100.00;101599.53;5049388;28;20060;-79
2022/04/15 02:36:50;;;;;;;1407.97;999.90;;;;;;;6.98;100.00;101603.66;5042130;28;20474;-79
2022/04/15 02:39:23;;;;;;;1423.05;999.90;;;;;;;6.95;100.00;101601.41;5041718;28;20049;-79
2022/04/15 02:41:58;;;;;;;1422.05;999.90;;;;;;;7.01;100.00;101607.78;5050364;28;20036;-79
2022/04/15 02:44:31;;;;;;;1429.00;999.90;;;;;;;6.94;100.00;101607.88;5051253;28;20052;-81
2022/04/15 02:47:05;;;;;;;1439.65;999.90;;;;;;;6.98;100.00;101611.78;5042245;28;20056;-79
2022/04/15 02:49:39;;;;;;;1458.78;999.90;;;;;;;6.96;100.00;101609.31;5048614;28;20048;-78
2022/04/15 02:52:12;;;;;;;1480.82;999.90;;;;;;;6.95;100.00;101610.34;5040837;28;20041;-79
2022/04/15 02:54:45;;;;;;;1483.30;999.90;;;;;;;6.88;100.00;101612.34;5044784;28;20064;-79
2022/04/15 02:57:19;;;;;;;1489.57;999.90;;;;;;;6.90;100.00;101610.22;5037614;28;20045;-79
2022/04/15 02:59:52;;;;;;;1490.22;999.90;;;;;;;6.95;100.00;101613.06;5039771;28;20073;-79
2022/04/15 03:02:26;;;;;;;1506.60;999.90;;;;;;;6.90;100.00;101617.53;5051060;28;20049;-80
2022/04/15 03:04:54;;;;;;;1505.40;999.90;;;;;;;6.88;100.00;101614.25;5045483;28;20044;-78
2022/04/15 03:07:27;;;;;;;1515.55;999.90;;;;;;;6.89;100.00;101605.88;5046342;28;20061;-79
2022/04/15 03:10:00;;;;;;;1532.65;999.90;;;;;;;6.95;100.00;101620.38;5045862;28;20056;-79
2022/04/15 03:12:35;;;;;;;1540.97;999.90;;;;;;;6.95;100.00;101618.47;5046931;28;20057;-79
2022/04/15 03:15:05;;;;;;;1543.35;999.90;;;;;;;6.92;100.00;101618.13;5049982;28;20064;-80
2022/04/15 03:17:38;;;;;;;1550.75;999.90;;;;;;;6.90;100.00;101625.63;5043693;28;20044;-80
2022/04/15 03:20:13;;;;;;;1546.78;999.90;;;;;;;6.84;100.00;101634.69;5046241;28;20049;-81
2022/04/15 03:22:46;;;;;;;1546.18;999.90;;;;;;;6.91;100.00;101630.81;5041784;28;20060;-79
2022/04/15 03:25:19;;;;;;;1574.38;999.90;;;;;;;6.93;100.00;101636.84;5050105;28;20053;-80
2022/04/15 03:27:54;;;;;;;1578.40;999.90;;;;;;;6.81;100.00;101633.28;5046608;28;20430;-80
2022/04/15 03:30:27;;;;;;;1591.13;999.90;;;;;;;6.80;100.00;101632.44;5050991;28;20044;-79
2022/04/15 03:33:00;;;;;;;1602.78;999.90;;;;;;;6.84;100.00;101632.00;5046960;28;20441;-80
2022/04/15 03:35:33;;;;;;;1622.93;999.90;;;;;;;6.85;100.00;101631.75;5046925;28;20053;-79
2022/04/15 03:38:06;;;;;;;1657.25;999.90;;;;;;;6.90;100.00;101629.16;5037704;28;20054;-79
2022/04/15 03:40:39;;;;;;;1688.40;999.90;;;;;;;6.91;100.00;101632.72;5059034;28;20041;-79
2022/04/15 03:43:14;;;;;;;1693.88;999.90;;;;;;;6.75;100.00;101620.66;5057256;28;20052;-80
2022/04/15 03:45:42;;;;;;;1692.50;999.90;;;;;;;6.83;100.00;101641.16;5059225;28;20048;-79
2022/04/15 03:48:15;;;;;;;1705.60;999.90;;;;;;;6.85;100.00;101639.03;5051448;28;20497;-79
2022/04/15 03:50:48;;;;;;;1729.82;999.90;;;;;;;6.75;100.00;101623.34;5052650;28;20048;-82
2022/04/15 03:53:21;;;;;;;1737.45;999.90;;;;;;;6.79;100.00;101636.22;5057504;28;20049;-80
2022/04/15 03:55:55;;;;;;;1751.05;999.90;;;;;;;6.75;100.00;101634.19;5045287;28;20068;-82
2022/04/15 03:58:29;;;;;;;1777.72;999.90;;;;;;;6.81;100.00;101631.38;5051462;28;20537;-79
2022/04/15 04:01:03;;;;;;;1788.60;999.90;;;;;;;6.77;100.00;101642.91;5052597;28;20045;-79
2022/04/15 04:03:36;;;;;;;1803.22;999.90;;;;;;;6.79;100.00;101638.06;5053809;28;20045;-79
2022/04/15 04:06:04;;;;;;;1815.20;999.90;;;;;;;6.80;100.00;101629.72;5050782;28;20057;-79
2022/04/15 04:08:32;;;;;;;1818.97;999.90;;;;;;;6.77;100.00;101643.72;5050530;28;20033;-79
2022/04/15 04:11:00;;;;;;;1832.68;999.90;;;;;;;6.85;100.00;101639.88;5056727;28;20049;-79
2022/04/15 04:13:35;;;;;;;1844.28;999.90;;;;;;;6.84;100.00;101638.22;5054767;28;20049;-79
2022/04/15 04:16:08;;;;;;;1847.28;999.90;;;;;;;6.77;100.00;101638.31;5050673;28;20064;-80
2022/04/15 04:18:41;;;;;;;1860.95;999.90;;;;;;;6.86;100.00;101638.78;5048976;28;20041;-80
2022/04/15 04:21:14;;;;;;;1864.05;999.90;;;;;;;6.76;100.00;101638.53;5054707;28;20041;-80
2022/04/15 04:23:48;;;;;;;1861.20;999.90;;;;;;;6.76;100.00;101636.66;5054356;28;20068;-79
2022/04/15 04:26:21;;;;;;;1885.82;999.90;;;;;;;6.72;100.00;101649.00;5065996;28;20067;-82
2022/04/15 04:28:56;;;;;;;1900.70;999.90;;;;;;;6.71;100.00;101651.94;5060187;28;20044;-80
2022/04/15 04:31:29;;;;;;;1923.97;999.90;;;;;;;6.74;100.00;101646.06;5055503;28;20044;-80
2022/04/15 04:34:02;;;;;;;1946.00;999.90;;;;;;;6.77;100.00;101657.25;5053260;28;20049;-80
2022/04/15 04:36:35;;;;;;;1946.68;999.90;;;;;;;6.84;100.00;101661.75;5046881;28;20049;-79
2022/04/15 04:39:10;;;;;;;1955.30;999.90;;;;;;;6.80;100.00;101659.47;5059662;28;20059;-79
2022/04/15 04:41:44;;;;;;;1957.65;999.90;;;;;;;6.78;100.00;101658.91;5049245;28;20478;-79
2022/04/15 04:44:18;;;;;;;1970.97;999.90;;;;;;;6.82;100.00;101670.06;5055844;28;20053;-81
2022/04/15 04:46:52;;;;;;;1974.72;999.90;;;;;;;6.75;100.00;101674.75;5045576;28;20052;-81
2022/04/15 04:49:26;;;;;;;1987.32;999.90;;;;;;;6.67;100.00;101666.97;5054439;28;20052;-80
2022/04/15 04:51:59;;;;;;;1998.45;999.90;;;;;;;6.73;100.00;101675.00;5043396;28;20042;-81
2022/04/15 04:54:32;;;;;;;1999.90;999.90;;;;;;;6.84;100.00;101675.28;5049127;28;20048;-82
2022/04/15 04:57:05;;;;;;;1999.90;999.90;;;;;;;6.73;100.00;101683.09;5050672;28;20048;-80
2022/04/15 04:59:40;;;;;;;1999.90;999.90;;;;;;;6.75;100.00;101685.59;5052054;28;20049;-81
2022/04/15 05:02:13;;;;;;;1999.90;999.90;;;;;;;6.74;100.00;101684.78;5043560;28;20056;-79
2022/04/15 05:04:46;;;;;;;1999.90;999.90;;;;;;;6.84;100.00;101683.41;5055748;28;20056;-80
2022/04/15 05:07:19;;;;;;;1999.90;999.90;;;;;;;6.89;100.00;101688.94;5045415;28;20045;-80
2022/04/15 05:09:53;;;;;;;1999.90;999.90;;;;;;;6.87;100.00;101686.44;5048938;28;20052;-79
2022/04/15 05:12:26;;;;;;;1999.90;999.90;;;;;;;6.92;100.00;101700.13;5063104;28;20044;-80
2022/04/15 05:15:00;;;;;;;1999.90;999.90;;;;;;;6.85;100.00;101696.69;5064664;28;20053;-80
2022/04/15 05:17:28;;;;;;;1999.90;999.90;;;;;;;6.91;100.00;101706.59;5052437;28;20142;-80
2022/04/15 05:19:57;;;;;;;1999.90;999.90;;;;;;;6.88;100.00;101706.25;5052842;28;20423;-80
2022/04/15 05:22:30;;;;;;;1999.90;999.90;;;;;;;6.99;100.00;101705.44;5054221;28;20053;-79
2022/04/15 05:25:06;;;;;;;1999.90;999.90;;;;;;;6.93;100.00;101714.47;5053671;28;20429;-80
2022/04/15 05:27:39;;;;;;;1999.90;999.90;;;;;;;6.84;100.00;101721.28;5051929;28;20056;-81
2022/04/15 05:30:10;;;;;;;1999.90;999.90;;;;;;;6.86;100.00;101722.69;5058954;28;20053;-79
2022/04/15 05:32:43;;;;;;;1999.90;999.90;;;;;;;6.85;100.00;101726.47;5052274;28;20064;-80
2022/04/15 05:35:16;;;;;;;1999.90;999.90;;;;;;;6.73;100.00;101712.88;5052911;28;20041;-80
2022/04/15 05:37:49;;;;;;;1999.90;999.90;;;;;;;6.77;100.00;101716.78;5049687;28;20045;-82
2022/04/15 05:40:23;;;;;;;1999.90;999.90;;;;;;;6.91;100.00;101725.53;5051961;28;20045;-80
2022/04/15 05:42:57;;;;;;;1999.90;999.90;;;;;;;6.97;100.00;101721.06;5053722;28;20370;-80
2022/04/15 05:45:26;;;;;;;1999.90;999.90;;;;;;;6.83;100.00;101727.75;5052100;28;20056;-80
2022/04/15 05:47:59;;;;;;;1999.90;999.90;;;;;;;6.92;100.00;101729.09;5059704;28;20052;-79
2022/04/15 05:50:32;;;;;;;1999.90;999.90;;;;;;;6.96;100.00;101736.50;5053449;28;20048;-80
2022/04/15 05:53:05;;;;;;;1999.90;999.90;;;;;;;6.94;100.00;101738.59;5053368;28;20374;-79
2022/04/15 05:55:39;;;;;;;1999.90;999.90;;;;;;;7.02;100.00;101748.28;5053332;28;20037;-80
2022/04/15 05:58:12;;;;;;;1999.90;999.90;;;;;;;6.92;100.00;101742.59;5052253;28;20064;-79
2022/04/15 06:00:46;;;;;;;1999.90;999.90;;;;;;;6.95;100.00;101748.38;5044804;28;20033;-80
2022/04/15 06:03:20;;;;;;;1999.90;999.90;;;;;;;6.84;100.00;101757.28;5052354;28;20057;-80
2022/04/15 06:05:53;;;;;;;1999.90;999.90;;;;;;;6.95;100.00;101756.50;5051652;28;20076;-83
2022/04/15 06:08:26;;;;;;;1999.90;999.90;;;;;;;7.02;100.00;101756.41;5052927;28;20519;-79
2022/04/15 06:11:00;;;;;;;1999.90;999.90;;;;;;;7.20;100.00;101754.72;5053267;28;20045;-79
2022/04/15 06:13:33;;;;;;;1999.90;999.90;;;;;;;7.08;100.00;101755.47;5052003;28;20057;-80
2022/04/15 06:16:05;;;;;;;1999.90;999.90;;;;;;;7.11;100.00;101756.91;5051710;28;20056;-79
2022/04/15 06:18:38;;;;;;;1999.90;999.90;;;;;;;7.13;100.00;101762.94;5052389;28;20052;-80
2022/04/15 06:21:11;;;;;;;1999.90;999.90;;;;;;;7.10;100.00;101763.38;5054615;28;20045;-79
2022/04/15 06:23:45;;;;;;;1999.90;999.90;;;;;;;7.04;100.00;101773.22;5051533;28;20056;-81
2022/04/15 06:26:18;;;;;;;1999.90;999.90;;;;;;;6.96;100.00;101781.66;5052446;28;20614;-79
2022/04/15 06:28:51;;;;;;;1999.90;999.90;;;;;;;7.01;100.00;101789.13;5046904;28;20052;-80
2022/04/15 06:31:26;;;;;;;1999.90;999.90;;;;;;;6.98;100.00;101780.38;5051659;28;20405;-81
2022/04/15 06:33:59;;;;;;;1999.90;999.90;;;;;;;7.05;100.00;101784.91;5053766;28;20056;-81
2022/04/15 06:36:32;;;;;;;1999.90;999.90;;;;;;;6.97;100.00;101783.31;5051499;28;20060;-80
2022/04/15 06:39:00;;;;;;;1999.90;999.90;;;;;;;7.13;100.00;101788.09;5052955;28;20053;-79
2022/04/15 06:41:34;;;;;;;1999.90;999.90;;;;;;;7.01;100.00;101783.69;5052565;28;20041;-80
2022/04/15 06:44:07;;;;;;;1999.90;999.90;;;;;;;7.06;100.00;101800.09;5052538;28;20044;-81
2022/04/15 06:46:42;;;;;;;1999.90;999.90;;;;;;;7.03;100.00;101809.50;5050933;28;20060;-80
2022/04/15 06:49:15;;;;;;;1999.90;999.90;;;;;;;7.07;100.00;101813.41;5050128;28;20057;-82
2022/04/15 06:51:48;;;;;;;1999.90;999.90;;;;;;;6.98;100.00;101812.03;5051311;28;20053;-81
2022/04/15 06:54:16;;;;;;;1999.90;999.90;;;;;;;7.04;100.00;101811.13;5053167;28;20492;-79
2022/04/15 06:56:50;;;;;;;1999.90;999.90;;;;;;;7.01;100.00;101819.69;5045728;28;20056;-81
2022/04/15 06:59:18;;;;;;;1999.90;999.90;;;;;;;7.08;100.00;101815.03;5064358;28;20067;-79
2022/04/15 07:01:47;;;;;;;1999.90;999.90;;;;;;;7.06;100.00;101825.28;5043638;28;20046;-84
2022/04/15 07:04:21;;;;;;;1999.90;999.90;;;;;;;7.13;100.00;101826.00;5036876;28;20059;-79
2022/04/15 07:06:54;;;;;;;1999.90;999.90;;;;;;;7.13;100.00;101836.00;5044069;28;20398;-83
2022/04/15 07:09:27;;;;;;;1999.90;999.90;;;;;;;7.13;100.00;101836.00;5051076;28;20052;-79
2022/04/15 07:12:00;;;;;;;1999.90;999.90;;;;;;;6.99;100.00;101838.06;5045498;28;20056;-81
2022/04/15 07:14:33;;;;;;;1999.90;999.90;;;;;;;7.04;100.00;101845.50;5050365;28;20044;-80
2022/04/15 07:17:08;;;;;;;1999.90;999.90;;;;;;;6.94;100.00;101846.03;5041838;28;20056;-88
2022/04/15 07:19:42;;;;;;;1999.90;999.90;;;;;;;7.02;100.00;101836.78;5045333;28;20393;-80
2022/04/15 07:22:17;;;;;;;1999.90;999.90;;;;;;;6.94;100.00;101835.22;5040899;28;20497;-80
2022/04/15 07:24:46;;;;;;;1999.90;999.90;;;;;;;6.90;100.00;101837.53;5046358;28;20056;-83
2022/04/15 07:27:19;;;;;;;1999.90;999.90;;;;;;;6.97;100.00;101832.88;5038960;28;20407;-81
2022/04/15 07:29:53;;;;;;;1999.90;999.90;;;;;;;6.97;100.00;101835.59;5056222;28;20040;-81
2022/04/15 07:32:29;;;;;;;1999.90;999.90;;;;;;;6.93;100.00;101828.13;5046787;28;20053;-82
2022/04/15 07:35:02;;;;;;;1999.90;999.90;;;;;;;7.02;100.00;101834.09;5046175;28;20049;-80
2022/04/15 07:37:30;;;;;;;1999.90;999.90;;;;;;;7.02;100.00;101840.31;5044075;28;20049;-83
2022/04/15 07:40:04;;;;;;;1999.90;999.90;;;;;;;7.08;100.00;101838.56;5046771;28;20045;-85
2022/04/15 07:42:37;;;;;;;1999.90;999.90;;;;;;;6.96;100.00;101852.88;5057180;28;20049;-85
2022/04/15 07:45:10;;;;;;;1999.90;999.90;;;;;;;7.06;100.00;101857.75;5041079;28;20045;-86
2022/04/15 07:47:40;;;;;;;1999.90;999.90;;;;;;;7.02;100.00;101864.66;5043787;28;20044;-83
2022/04/15 07:50:13;;;;;;;1999.90;999.90;;;;;;;6.93;100.00;101855.19;5043173;28;20049;-82
2022/04/15 07:52:46;;;;;;;1999.90;999.90;;;;;;;6.98;100.00;101858.88;5040378;28;20061;-79
2022/04/15 07:55:19;;;;;;;1999.90;999.90;;;;;;;6.95;100.00;101864.75;5043348;28;20045;-83
2022/04/15 07:57:52;;;;;;;1999.90;999.90;;;;;;;7.03;100.00;101866.34;5038219;28;20042;-81
2022/04/15 08:00:25;;;;;;;1999.90;999.90;;;;;;;7.18;100.00;101871.34;5040299;28;21881;-78
2022/04/15 08:03:00;;;;;;;1999.90;999.90;;;;;;;7.23;100.00;101870.66;5039830;28;20054;-80
2022/04/15 08:05:34;;;;;;;1999.90;999.90;;;;;;;7.15;100.00;101877.22;5057429;28;20049;-79
2022/04/15 08:08:08;;;;;;;1999.90;999.90;;;;;;;7.26;100.00;101871.00;5054137;28;20057;-78
2022/04/15 08:10:41;;;;;;;1999.90;999.90;;;;;;;7.26;100.00;101881.84;5056621;28;20052;-79
2022/04/15 08:13:16;;;;;;;1999.90;999.90;;;;;;;7.27;100.00;101874.56;5035429;28;20045;-82
2022/04/15 08:15:50;;;;;;;1999.90;999.90;;;;;;;7.39;100.00;101890.84;5043373;28;20052;-81
2022/04/15 08:18:25;;;;;;;1999.90;999.90;;;;;;;7.36;100.00;101894.03;5033784;28;20053;-80
2022/04/15 08:20:58;;;;;;;1999.90;999.90;;;;;;;7.38;100.00;101906.28;5035433;28;20060;-79
2022/04/15 08:23:31;;;;;;;1999.90;999.90;;;;;;;7.39;100.00;101909.81;5040758;28;20516;-80
2022/04/15 08:26:05;;;;;;;1999.90;999.90;;;;;;;7.40;100.00;101906.91;5049139;28;20056;-80
2022/04/15 08:28:38;;;;;;;1999.90;999.90;;;;;;;7.36;100.00;101912.97;5048921;28;20048;-81
2022/04/15 08:31:07;;;;;;;1999.90;999.90;;;;;;;7.52;100.00;101908.84;5048236;28;20054;-81
2022/04/15 08:33:42;;;;;;;1999.90;999.90;;;;;;;7.57;100.00;101912.50;5039927;28;20544;-83
2022/04/15 08:36:11;;;;;;;1999.90;999.90;;;;;;;7.57;100.00;101915.22;5046329;28;20379;-78
2022/04/15 08:38:39;;;;;;;1999.90;999.90;;;;;;;7.55;100.00;101925.44;5042996;28;20041;-84
2022/04/15 08:41:14;;;;;;;1999.90;999.90;;;;;;;7.47;100.00;101926.59;5030541;28;20382;-82
2022/04/15 08:43:47;;;;;;;1999.90;999.90;;;;;;;7.46;100.00;101930.34;5041232;28;20429;-80
2022/04/15 08:46:16;;;;;;;1999.90;999.90;;;;;;;7.48;100.00;101935.53;5027550;28;20389;-79
2022/04/15 08:48:46;;;;;;;1999.90;999.90;;;;;;;7.44;100.00;101927.06;5031074;28;20061;-78
2022/04/15 08:51:19;;;;;;;1999.90;999.90;;;;;;;7.39;100.00;101929.63;5027790;28;20060;-79
2022/04/15 08:53:52;;;;;;;1999.90;999.90;;;;;;;7.53;100.00;101943.00;5026319;28;20887;-83
2022/04/15 08:56:25;;;;;;;1999.90;999.90;;;;;;;7.46;100.00;101935.78;5031113;28;20469;-81
2022/04/15 08:58:59;;;;;;;1999.90;999.90;;;;;;;7.54;100.00;101952.75;5029697;28;20048;-80
2022/04/15 09:01:33;;;;;;;1999.90;999.90;;;;;;;7.57;100.00;101947.72;5031395;28;20056;-79
2022/04/15 09:04:07;;;;;;;1999.90;999.90;;;;;;;7.66;100.00;101951.78;5030284;28;20697;-79
2022/04/15 09:06:42;;;;;;;1999.90;999.90;;;;;;;7.64;100.00;101953.06;5028306;28;20045;-81
2022/04/15 09:09:13;;;;;;;1999.90;999.90;;;;;;;7.64;100.00;101951.16;5028512;28;20075;-83
2022/04/15 09:11:49;;;;;;;1999.90;999.90;;;;;;;7.61;100.00;101956.19;5012761;28;20052;-84
2022/04/15 09:14:17;;;;;;;1999.90;999.90;;;;;;;7.66;100.00;101972.59;5034055;28;20064;-81
2022/04/15 09:16:51;;;;;;;1999.90;999.90;;;;;;;7.62;100.00;101983.09;5034091;28;20057;-83
2022/04/15 09:19:20;;;;;;;1999.90;999.90;;;;;;;7.53;100.00;101972.81;5025725;28;20709;-84
2022/04/15 09:21:53;;;;;;;1999.90;999.90;;;;;;;7.45;100.00;101985.56;5025162;28;20056;-82
2022/04/15 09:24:27;;;;;;;1999.90;999.90;;;;;;;7.39;100.00;101978.38;5028867;28;20057;-80
2022/04/15 09:27:03;;;;;;;1999.90;999.90;;;;;;;7.40;100.00;101981.88;5029426;28;20048;-80
2022/04/15 09:29:40;;;;;;;1999.90;999.90;;;;;;;7.46;100.00;101981.00;5019614;28;20060;-81
2022/04/15 09:32:16;;;;;;;1999.90;999.90;;;;;;;7.51;100.00;101983.84;5018161;28;20053;-80
2022/04/15 09:34:54;;;;;;;1999.90;999.90;;;;;;;7.42;100.00;101996.06;5019157;28;21531;-79
2022/04/15 09:37:30;;;;;;;1999.90;999.90;;;;;;;7.46;100.00;101984.53;5026936;28;20043;-81
2022/04/15 09:40:06;;;;;;;1999.90;999.90;;;;;;;7.49;100.00;101981.34;5027202;28;20044;-79
2022/04/15 09:42:35;;;;;;;1999.90;999.90;;;;;;;7.53;100.00;101986.34;5029049;28;20053;-80
2022/04/15 09:45:13;;;;;;;1999.90;999.90;;;;;;;7.59;100.00;102004.38;5023812;28;20678;-79
2022/04/15 09:47:42;;;;;;;1999.90;999.90;;;;;;;7.63;100.00;101995.56;5019728;28;20053;-79
2022/04/15 09:50:25;;;;;;;1999.90;999.90;;;;;;;7.61;100.00;102004.97;5024735;28;20052;-79
2022/04/15 09:53:08;;;;;;;1999.90;999.90;;;;;;;7.60;100.00;102001.44;5025519;28;20052;-82
2022/04/15 09:55:43;;;;;;;1999.90;999.90;;;;;;;7.70;100.00;102002.78;5029686;28;20045;-82
2022/04/15 09:58:17;;;;;;;1999.90;999.90;;;;;;;7.71;100.00;102009.88;5020406;28;20057;-81
2022/04/15 10:00:52;;;;;;;1999.90;999.90;;;;;;;7.64;100.00;102012.66;5022130;28;20049;-83
2022/04/15 10:03:28;;;;;;;1999.90;999.90;;;;;;;7.75;100.00;102016.50;5026369;28;20056;-81
2022/04/15 10:06:02;;;;;;;1999.90;999.90;;;;;;;7.59;100.00;102026.88;5022855;28;20044;-80
2022/04/15 10:08:36;;;;;;;1999.90;999.90;;;;;;;7.42;100.00;102021.25;5021126;28;20645;-82
2022/04/15 10:11:10;;;;;;;1999.90;999.90;;;;;;;7.36;100.00;102024.88;4998035;28;20134;-81
2022/04/15 10:13:40;;;;;;;1999.90;999.90;;;;;;;7.42;100.00;102032.06;5031697;28;20072;-82
2022/04/15 10:16:09;;;;;;;1999.90;999.90;;;;;;;7.37;100.00;102025.69;5020893;28;20067;-80
2022/04/15 10:18:38;;;;;;;1999.90;999.90;;;;;;;7.55;100.00;102036.50;5025848;28;20409;-81
2022/04/15 10:21:09;;;;;;;1999.90;999.90;;;;;;;7.54;100.00;102040.28;5022810;28;20766;-81
2022/04/15 10:23:43;;;;;;;1999.90;999.90;;;;;;;7.65;100.00;102036.81;5030059;28;20052;-81
2022/04/15 10:26:18;;;;;;;1999.90;999.90;;;;;;;7.40;100.00;102027.94;5026964;28;20045;-81
2022/04/15 10:28:48;;;;;;;1999.90;999.90;;;;;;;7.41;100.00;102035.00;5012749;28;20056;-81
2022/04/15 10:31:24;;;;;;;1999.90;999.90;;;;;;;7.31;100.00;102033.66;5016298;28;20057;-79
2022/04/15 10:33:52;;;;;;;1999.90;999.90;;;;;;;7.34;100.00;102037.78;5023795;28;20057;-81
2022/04/15 10:36:26;;;;;;;1999.90;999.90;;;;;;;7.42;100.00;102042.09;5021236;28;20501;-80
2022/04/15 10:39:17;;;;;;;1999.90;999.90;;;;;;;7.37;100.00;102050.06;5025856;28;20049;-79
2022/04/15 10:41:58;;;;;;;1999.90;999.90;;;;;;;7.36;100.00;102054.66;5027281;28;20375;-81
2022/04/15 10:44:35;;;;;;;1999.90;999.90;;;;;;;7.44;100.00;102058.94;5030250;28;20602;-81
2022/04/15 10:47:12;;;;;;;1999.90;999.90;;;;;;;7.46;100.00;102056.84;5023089;28;20749;-81
2022/04/15 10:49:55;;;;;;;;;;;;;;;7.56;100.00;102061.72;5028430;28;20053;-81
2022/04/15 10:52:30;;;;;;;1999.90;999.90;;;;;;;7.46;100.00;102057.66;5030794;28;19929;-80
2022/04/15 10:55:06;;;;;;;1999.90;999.90;;;;;;;7.42;100.00;102059.16;5021725;28;20724;-79
2022/04/15 10:57:40;;;;;;;1999.90;999.90;;;;;;;7.41;100.00;102051.25;5018463;28;20057;-80
2022/04/15 11:03:20;;;;;;;1999.90;999.90;;;;;;;7.42;100.00;102069.19;5018409;28;20631;-82
2022/04/15 11:05:55;;;;;;;1999.90;999.90;;;;;;;7.38;100.00;102067.97;5022881;28;20059;-81
2022/04/15 11:08:45;;;;;;;1999.90;999.90;;;;;;;7.52;100.00;102068.66;5015377;28;20446;-80
2022/04/15 11:11:13;;;;;;;1999.90;999.90;;;;;;;7.39;100.00;102073.16;4992316;27;20061;-79
2022/04/15 11:14:03;;;;;;;1999.90;999.90;;;;;;;7.47;100.00;102083.69;5020373;28;20061;-79
2022/04/15 11:16:41;;;;;;;1999.90;999.90;;;;;;;7.48;100.00;102069.13;5025431;28;20056;-81